Time;durP1;ratioP1;P1;durP2;ratioP2;P2;SDS_P1;SDS_P2;PMS_P1;PMS_P2;Temp;Humidity;BMP_temperature;BMP_pressure;BME280_temperature;BME280_humidity;BME280_pressure;Samples;Min_cycle;Max_cycle;Signal;HPM_P1;HPM_P2
2022/01/25 00:15:10;;;;;;;62.85;31.63;;;3.60;99.90;;;;;;5030619;28;20049;-77
2022/01/25 00:28:51;;;;;;;60.20;31.88;;;3.60;99.90;;;;;;5030035;28;20103;-79
2022/01/25 00:31:13;;;;;;;66.85;32.78;;;3.60;99.90;;;;;;5029078;28;20041;-80
2022/01/25 00:33:46;;;;;;;75.93;33.33;;;3.50;99.90;;;;;;5030483;28;20405;-80
2022/01/25 00:36:15;;;;;;;67.80;34.45;;;3.60;99.90;;;;;;5012342;28;20059;-78
2022/01/25 00:38:41;;;;;;;61.72;31.38;;;3.60;99.90;;;;;;5030118;28;20049;-78
2022/01/25 00:41:07;;;;;;;59.90;32.00;;;3.60;99.90;;;;;;5030209;28;20694;-80
2022/01/25 00:43:33;;;;;;;65.45;33.28;;;3.60;99.90;;;;;;5029479;28;20061;-80
2022/01/25 00:46:04;;;;;;;65.63;31.15;;;3.60;99.90;;;;;;5030025;28;20052;-82
2022/01/25 00:48:55;;;;;;;63.92;33.92;;;3.60;99.90;;;;;;5030150;28;20046;-82
2022/01/25 00:53:59;;;;;;;61.30;31.85;;;3.50;99.90;;;;;;5030056;28;20103;-78
2022/01/25 00:56:34;;;;;;;63.03;32.28;;;3.50;99.90;;;;;;5009940;28;20107;-79
2022/01/25 00:59:02;;;;;;;60.05;31.17;;;3.50;99.90;;;;;;5010002;28;20054;-80
2022/01/25 01:01:28;;;;;;;65.97;32.65;;;3.60;99.90;;;;;;5014203;28;20845;-81
2022/01/25 01:03:54;;;;;;;64.70;33.97;;;3.50;99.90;;;;;;5029981;28;20057;-84
2022/01/25 01:06:20;;;;;;;72.85;33.88;;;3.50;99.90;;;;;;5012259;28;20061;-79
2022/01/25 01:08:46;;;;;;;65.43;33.50;;;3.50;99.90;;;;;;5029808;28;20119;-79
2022/01/25 01:11:18;;;;;;;61.58;32.03;;;3.60;99.90;;;;;;5029873;28;20046;-78
2022/01/25 01:33:12;;;;;;;64.75;32.17;;;3.50;99.90;;;;;;5029602;28;20057;-78
2022/01/25 01:45:52;;;;;;;68.95;34.90;;;3.50;99.90;;;;;;4987589;28;20050;-78
2022/01/25 01:48:30;;;;;;;67.15;33.05;;;3.50;99.90;;;;;;4987593;28;20054;-79
2022/01/25 01:51:03;;;;;;;67.38;34.28;;;3.50;99.90;;;;;;4987560;28;20055;-80
2022/01/25 01:53:29;;;;;;;61.80;32.45;;;3.50;99.90;;;;;;4987571;28;20109;-78
2022/01/25 01:55:54;;;;;;;63.55;33.75;;;3.50;99.90;;;;;;4972058;28;20050;-83
2022/01/25 01:58:20;;;;;;;65.13;34.05;;;3.50;99.90;;;;;;4952326;28;20465;-79
2022/01/25 02:00:47;;;;;;;69.88;34.58;;;3.50;99.90;;;;;;4951814;28;20063;-78
2022/01/25 02:03:14;;;;;;;65.45;33.88;;;3.50;99.90;;;;;;4968215;28;20043;-80
2022/01/25 02:05:40;;;;;;;71.60;35.03;;;3.50;99.90;;;;;;4968224;28;20050;-80
2022/01/25 02:08:06;;;;;;;65.75;34.38;;;3.50;99.90;;;;;;4969651;28;20058;-80
2022/01/25 02:10:33;;;;;;;66.95;34.83;;;3.50;99.90;;;;;;4971581;28;20531;-78
2022/01/25 02:12:59;;;;;;;69.57;34.95;;;3.50;99.90;;;;;;4973705;28;20146;-79
2022/01/25 02:15:27;;;;;;;65.10;33.60;;;3.50;99.90;;;;;;4996691;28;20050;-78
2022/01/25 02:22:26;;;;;;;65.40;34.28;;;3.50;99.90;;;;;;5013011;28;20129;-80
2022/01/25 02:23:30;;;;;;;62.30;32.28;;;3.50;99.90;;;;;;5012809;28;20089;-79
2022/01/25 02:26:00;;;;;;;67.47;34.63;;;3.50;99.90;;;;;;5012630;28;20096;-80
2022/01/25 02:28:29;;;;;;;70.15;36.38;;;3.50;99.90;;;;;;5012773;28;20050;-81
2022/01/25 02:30:56;;;;;;;64.03;34.20;;;3.50;99.90;;;;;;5012643;28;20038;-82
2022/01/25 02:33:23;;;;;;;74.95;36.78;;;3.50;99.90;;;;;;5012988;28;20128;-82
2022/01/25 02:35:49;;;;;;;66.25;33.63;;;3.50;99.90;;;;;;5013687;28;20045;-79
2022/01/25 02:38:30;;;;;;;72.22;35.40;;;3.50;99.90;;;;;;4994919;28;20056;-82
2022/01/25 02:40:57;;;;;;;67.32;35.33;;;3.50;99.90;;;;;;4995114;28;20050;-78
2022/01/25 02:43:24;;;;;;;67.93;34.88;;;3.50;99.90;;;;;;5014758;28;20089;-78
2022/01/25 02:46:16;;;;;;;73.63;35.67;;;3.50;99.90;;;;;;5032052;28;20282;-80
2022/01/25 02:48:55;;;;;;;67.78;35.33;;;3.50;99.90;;;;;;5031959;28;20056;-79
2022/01/25 02:51:26;;;;;;;67.88;34.58;;;3.80;99.90;;;;;;5014130;28;20053;-83
2022/01/25 02:53:53;;;;;;;67.30;33.83;;;3.50;99.90;;;;;;5032186;28;20140;-79
2022/01/25 02:56:19;;;;;;;68.35;34.50;;;3.50;99.90;;;;;;5031620;28;20123;-78
2022/01/25 02:58:45;;;;;;;68.43;34.65;;;3.50;99.90;;;;;;5032072;28;20179;-79
2022/01/25 03:01:11;;;;;;;70.55;34.55;;;3.50;99.90;;;;;;5031356;28;20045;-81
2022/01/25 03:03:37;;;;;;;65.22;35.10;;;3.50;99.90;;;;;;5031707;28;20103;-79
2022/01/25 03:06:04;;;;;;;68.80;34.92;;;3.90;99.90;;;;;;5031738;28;20053;-83
2022/01/25 03:08:30;;;;;;;65.65;33.70;;;3.50;99.90;;;;;;5013604;28;20049;-80
2022/01/25 03:10:56;;;;;;;70.65;33.78;;;3.50;99.90;;;;;;5031614;28;20103;-82
2022/01/25 03:13:28;;;;;;;78.65;36.35;;;3.50;99.90;;;;;;5031955;28;20080;-81
2022/01/25 03:15:59;;;;;;;66.72;34.45;;;3.50;99.90;;;;;;5013814;28;20053;-80
2022/01/25 03:18:39;;;;;;;66.28;34.28;;;3.50;99.90;;;;;;5030618;28;20064;-81
2022/01/25 03:21:33;;;;;;;67.00;34.60;;;3.50;99.90;;;;;;5031485;28;20052;-80
2022/01/25 03:23:59;;;;;;;66.22;33.83;;;3.50;99.90;;;;;;5031740;28;20045;-77
2022/01/25 03:26:25;;;;;;;66.95;33.60;;;3.50;99.90;;;;;;5030393;28;20124;-79
2022/01/25 03:28:53;;;;;;;71.43;34.78;;;3.40;99.90;;;;;;5030761;28;20183;-78
2022/01/25 03:31:19;;;;;;;71.53;35.60;;;3.40;99.90;;;;;;5031108;28;20049;-81
2022/01/25 03:33:45;;;;;;;67.60;33.60;;;3.90;99.90;;;;;;5030738;28;20053;-79
2022/01/25 03:36:11;;;;;;;67.00;33.75;;;3.40;99.90;;;;;;5031050;28;20052;-76
2022/01/25 03:38:39;;;;;;;65.18;34.28;;;3.40;99.90;;;;;;5031395;28;20049;-80
2022/01/25 03:41:11;;;;;;;63.47;32.95;;;3.50;99.90;;;;;;5031208;28;20047;-84
2022/01/25 03:43:37;;;;;;;69.10;34.35;;;3.40;99.90;;;;;;5013492;28;20135;-81
2022/01/25 03:46:11;;;;;;;70.45;33.78;;;3.40;99.90;;;;;;5031322;28;20041;-82
2022/01/25 03:51:21;;;;;;;62.60;32.13;;;3.40;99.90;;;;;;5031176;28;20570;-78
2022/01/25 03:53:47;;;;;;;67.55;33.72;;;3.40;99.90;;;;;;5030706;28;20065;-76
2022/01/25 03:56:13;;;;;;;66.78;32.55;;;3.40;99.90;;;;;;5030800;28;20037;-77
2022/01/25 03:58:39;;;;;;;68.45;32.30;;;3.40;99.90;;;;;;5030730;28;20065;-87
2022/01/25 04:01:04;;;;;;;71.65;34.17;;;3.40;99.90;;;;;;5030207;28;20099;-79
2022/01/25 04:03:37;;;;;;;69.70;33.58;;;3.40;99.90;;;;;;5012873;28;20053;-79
2022/01/25 04:06:04;;;;;;;62.80;31.80;;;3.40;99.90;;;;;;5030859;28;20139;-80
2022/01/25 04:08:29;;;;;;;69.28;33.80;;;3.40;99.90;;;;;;5030813;28;20826;-80
2022/01/25 04:10:55;;;;;;;72.63;33.10;;;3.40;99.90;;;;;;5012983;28;20128;-82
2022/01/25 04:13:21;;;;;;;74.15;34.47;;;3.40;99.90;;;;;;5030728;28;20072;-79
2022/01/25 04:15:48;;;;;;;68.95;33.17;;;3.40;99.90;;;;;;5030157;28;20404;-78
2022/01/25 04:20:54;;;;;;;64.60;32.30;;;3.40;99.90;;;;;;5012813;28;20068;-79
2022/01/25 04:26:04;;;;;;;66.20;32.45;;;3.40;99.90;;;;;;5030210;28;20041;-79
2022/01/25 04:28:30;;;;;;;68.78;34.92;;;3.40;99.90;;;;;;5030220;28;20103;-80
2022/01/25 04:30:55;;;;;;;69.40;31.25;;;3.40;99.90;;;;;;5030038;28;20116;-78
2022/01/25 04:33:25;;;;;;;72.13;34.05;;;3.40;99.90;;;;;;5012339;28;20049;-78
2022/01/25 04:36:11;;;;;;;71.03;34.42;;;3.40;99.90;;;;;;5030313;28;20049;-78
2022/01/25 04:49:40;;;;;;;67.95;32.03;;;3.40;99.90;;;;;;5029093;28;20415;-80
2022/01/25 04:52:16;;;;;;;65.53;33.47;;;3.50;99.90;;;;;;5029755;28;20484;-78
2022/01/25 05:02:31;;;;;;;69.75;34.10;;;3.40;99.90;;;;;;5029757;28;20084;-79
2022/01/25 05:05:06;;;;;;;69.82;33.65;;;3.30;99.90;;;;;;5012031;28;20064;-79
2022/01/25 05:07:53;;;;;;;68.38;33.08;;;3.30;99.90;;;;;;5029881;28;20056;-78
2022/01/25 05:10:19;;;;;;;74.53;35.45;;;3.30;99.90;;;;;;5029841;28;20052;-84
2022/01/25 05:13:11;;;;;;;72.90;34.28;;;3.30;99.90;;;;;;5029610;28;20144;-81
2022/01/25 05:16:03;;;;;;;68.68;34.60;;;3.40;99.90;;;;;;5028605;28;20045;-84
2022/01/25 05:18:44;;;;;;;69.68;34.97;;;3.30;99.90;;;;;;5029433;28;20121;-83
2022/01/25 05:23:55;;;;;;;74.00;34.23;;;3.30;99.90;;;;;;5011729;28;20511;-80
2022/01/25 05:26:21;;;;;;;70.53;34.17;;;3.30;99.90;;;;;;5029287;28;20310;-82
2022/01/25 05:28:47;;;;;;;71.95;34.28;;;3.30;99.90;;;;;;5029691;28;20077;-79
2022/01/25 05:31:12;;;;;;;69.22;33.65;;;3.30;99.90;;;;;;5029744;28;20522;-79
2022/01/25 05:33:38;;;;;;;75.00;37.30;;;3.30;99.90;;;;;;5029170;28;20407;-78
2022/01/25 05:36:04;;;;;;;71.15;36.33;;;3.30;99.90;;;;;;5028989;28;20661;-79
2022/01/25 05:38:30;;;;;;;79.20;37.88;;;3.30;99.90;;;;;;5029753;28;20495;-81
2022/01/25 05:40:59;;;;;;;77.45;35.35;;;3.80;99.90;;;;;;5029141;28;20539;-79
2022/01/25 05:46:14;;;;;;;68.67;35.67;;;3.30;99.90;;;;;;5033288;28;20053;-78
2022/01/25 05:48:40;;;;;;;71.90;34.90;;;3.30;99.90;;;;;;5033238;28;20068;-79
2022/01/25 05:51:06;;;;;;;68.82;34.67;;;3.30;99.90;;;;;;5032954;28;20837;-78
2022/01/25 05:53:31;;;;;;;73.90;34.83;;;3.30;99.90;;;;;;5033128;28;20037;-78
2022/01/25 05:55:57;;;;;;;69.75;34.42;;;3.30;99.90;;;;;;5032908;28;20049;-78
2022/01/25 05:58:24;;;;;;;70.95;34.58;;;3.40;99.90;;;;;;5015434;28;20111;-79
2022/01/25 06:00:50;;;;;;;74.88;35.03;;;3.30;99.90;;;;;;5032985;28;20052;-79
2022/01/25 06:03:17;;;;;;;72.53;35.70;;;3.40;99.90;;;;;;5032979;28;20132;-78
2022/01/25 06:05:43;;;;;;;75.72;36.92;;;3.40;99.90;;;;;;5032966;28;20406;-80
2022/01/25 06:08:09;;;;;;;73.43;34.28;;;3.40;99.90;;;;;;5033074;28;20045;-78
2022/01/25 06:10:35;;;;;;;76.70;36.30;;;3.40;99.90;;;;;;5032753;28;20384;-83
2022/01/25 06:13:00;;;;;;;74.72;36.25;;;3.40;99.90;;;;;;5015083;28;20072;-79
2022/01/25 06:15:27;;;;;;;76.10;37.15;;;3.30;99.90;;;;;;5032529;28;20064;-80
2022/01/25 06:17:52;;;;;;;73.95;36.65;;;3.90;99.90;;;;;;5032203;28;20137;-78
2022/01/25 06:20:18;;;;;;;71.70;36.38;;;3.40;99.90;;;;;;5032096;28;20120;-78
2022/01/25 06:22:44;;;;;;;69.82;35.53;;;3.40;99.90;;;;;;5032765;28;20048;-78
2022/01/25 06:25:11;;;;;;;74.32;36.65;;;3.40;99.90;;;;;;5032163;28;20403;-82
2022/01/25 06:27:40;;;;;;;68.93;35.03;;;3.40;99.90;;;;;;5032232;28;20437;-83
2022/01/25 06:30:15;;;;;;;79.13;35.95;;;3.40;99.90;;;;;;5032638;28;20125;-78
2022/01/25 06:32:41;;;;;;;;;;;3.40;99.90;;;;;;5033000;28;20597;-81
2022/01/25 06:35:08;;;;;;;70.65;35.70;;;3.40;99.90;;;;;;5032376;28;19925;-79
2022/01/25 06:37:35;;;;;;;75.30;37.38;;;3.40;99.90;;;;;;5032472;28;20049;-78
2022/01/25 06:40:01;;;;;;;75.45;35.33;;;3.40;99.90;;;;;;5032249;28;20064;-78
2022/01/25 06:42:29;;;;;;;68.93;34.22;;;3.40;99.90;;;;;;5032103;28;20041;-81
2022/01/25 06:45:00;;;;;;;69.68;35.08;;;3.40;99.90;;;;;;5032121;28;20081;-80
2022/01/25 06:47:26;;;;;;;78.05;37.05;;;3.40;99.90;;;;;;5032152;28;20408;-79
2022/01/25 06:49:52;;;;;;;73.40;35.53;;;4.40;99.90;;;;;;5014299;28;20049;-78
2022/01/25 06:52:17;;;;;;;73.72;35.35;;;3.40;99.90;;;;;;5031643;28;20038;-81
2022/01/25 06:54:43;;;;;;;75.93;37.22;;;3.40;99.90;;;;;;5031728;28;20136;-82
2022/01/25 06:57:09;;;;;;;72.38;36.03;;;3.40;99.90;;;;;;5031961;28;20479;-85
2022/01/25 06:59:35;;;;;;;71.38;34.97;;;3.40;99.90;;;;;;5032029;28;20042;-79
2022/01/25 07:02:00;;;;;;;73.18;36.38;;;3.40;99.90;;;;;;5031611;28;20123;-77
2022/01/25 07:04:26;;;;;;;74.30;36.95;;;3.40;99.90;;;;;;5031846;28;20044;-78
2022/01/25 07:06:52;;;;;;;77.20;36.35;;;3.40;99.90;;;;;;5032005;28;20041;-78
2022/01/25 07:09:17;;;;;;;76.20;36.25;;;3.40;99.90;;;;;;5031905;28;20464;-79
2022/01/25 07:11:43;;;;;;;74.40;35.30;;;3.40;99.90;;;;;;5031511;28;20041;-82
2022/01/25 07:14:09;;;;;;;77.20;36.05;;;3.40;99.90;;;;;;5013923;28;20135;-81
2022/01/25 07:16:34;;;;;;;77.03;35.95;;;3.40;99.90;;;;;;5031575;28;20408;-80
2022/01/25 07:19:00;;;;;;;69.40;34.95;;;3.40;99.90;;;;;;5013402;28;20527;-79
2022/01/25 07:21:26;;;;;;;79.50;36.65;;;3.40;99.90;;;;;;5031554;28;20053;-83
2022/01/25 07:23:51;;;;;;;70.15;34.65;;;3.40;99.90;;;;;;5031281;28;20424;-79
2022/01/25 07:26:17;;;;;;;74.30;36.78;;;3.40;99.90;;;;;;5031176;28;20400;-79
2022/01/25 07:28:43;;;;;;;71.40;35.55;;;3.40;99.90;;;;;;5031475;28;20053;-78
2022/01/25 07:31:09;;;;;;;71.55;35.78;;;3.40;99.90;;;;;;5031058;28;20045;-81
2022/01/25 07:33:35;;;;;;;76.88;37.47;;;3.40;99.90;;;;;;5013255;28;20057;-80
2022/01/25 07:36:01;;;;;;;80.72;36.17;;;3.40;99.90;;;;;;5031149;28;20049;-82
2022/01/25 07:38:26;;;;;;;76.32;36.80;;;3.40;99.90;;;;;;5031194;28;20041;-77
2022/01/25 07:40:52;;;;;;;80.93;37.88;;;3.40;99.90;;;;;;5031361;28;20049;-80
2022/01/25 07:43:18;;;;;;;74.32;35.88;;;3.40;99.90;;;;;;5030910;28;20492;-82
2022/01/25 07:45:50;;;;;;;73.32;36.15;;;3.40;99.90;;;;;;5030738;28;20495;-86
2022/01/25 07:48:15;;;;;;;78.38;37.53;;;3.40;99.90;;;;;;5030929;28;20115;-86
2022/01/25 07:50:41;;;;;;;81.10;34.88;;;3.40;99.90;;;;;;5030975;28;20050;-80
2022/01/25 07:53:07;;;;;;;72.70;35.25;;;3.40;99.90;;;;;;5030262;28;20539;-82
2022/01/25 07:55:33;;;;;;;77.57;36.20;;;3.40;99.90;;;;;;5031163;28;20120;-83
2022/01/25 07:57:59;;;;;;;76.13;34.70;;;3.40;99.90;;;;;;5031018;28;20041;-82
2022/01/25 08:00:24;;;;;;;76.07;35.00;;;3.40;99.90;;;;;;5012758;28;20052;-80
2022/01/25 08:02:51;;;;;;;77.38;36.20;;;3.40;99.90;;;;;;5011944;28;20048;-83
2022/01/25 08:05:19;;;;;;;79.72;37.65;;;3.40;99.90;;;;;;5030973;28;20671;-80
2022/01/25 08:07:45;;;;;;;74.28;34.80;;;3.40;99.90;;;;;;5030677;28;20491;-79
2022/01/25 08:10:11;;;;;;;79.63;38.28;;;3.40;99.90;;;;;;5030708;28;20088;-79
2022/01/25 08:12:37;;;;;;;72.30;35.97;;;3.40;99.90;;;;;;5030561;28;20045;-84
2022/01/25 08:15:06;;;;;;;76.95;36.60;;;3.40;99.90;;;;;;5030571;28;20447;-78
2022/01/25 08:17:32;;;;;;;69.13;35.42;;;3.40;99.90;;;;;;5030670;28;20156;-79
2022/01/25 08:19:58;;;;;;;72.60;35.50;;;3.40;99.90;;;;;;5030825;28;20064;-79
2022/01/25 08:22:24;;;;;;;71.38;33.55;;;3.40;99.90;;;;;;5012466;28;20495;-84
2022/01/25 08:24:51;;;;;;;72.68;35.08;;;4.10;99.90;;;;;;5030671;28;20053;-79
2022/01/25 08:27:20;;;;;;;77.55;36.22;;;3.40;99.90;;;;;;5030001;28;20045;-79
2022/01/25 08:29:46;;;;;;;73.72;35.50;;;3.40;99.90;;;;;;5030398;28;20076;-78
2022/01/25 08:32:12;;;;;;;70.60;34.50;;;3.40;99.90;;;;;;5030284;28;20049;-78
2022/01/25 08:34:38;;;;;;;71.88;34.53;;;3.40;99.90;;;;;;5030519;28;20562;-80
2022/01/25 08:37:04;;;;;;;76.72;36.28;;;3.50;99.90;;;;;;5030148;28;20111;-81
2022/01/25 08:39:30;;;;;;;74.75;34.75;;;3.40;99.90;;;;;;5029810;28;20403;-82
2022/01/25 08:41:55;;;;;;;73.22;35.35;;;3.40;99.90;;;;;;5030132;28;20037;-78
2022/01/25 08:44:21;;;;;;;70.28;35.85;;;3.40;99.90;;;;;;5030200;28;20191;-82
2022/01/25 08:46:47;;;;;;;74.10;34.40;;;3.40;99.90;;;;;;5030313;28;20049;-81
2022/01/25 08:49:13;;;;;;;81.32;38.05;;;3.40;99.90;;;;;;5029982;28;20049;-79
2022/01/25 08:51:38;;;;;;;79.97;35.83;;;3.40;99.90;;;;;;5012420;28;20193;-84
2022/01/25 08:54:05;;;;;;;73.97;35.55;;;3.50;99.90;;;;;;5012112;28;20144;-77
2022/01/25 08:56:31;;;;;;;78.38;35.55;;;3.40;99.90;;;;;;5029903;28;20053;-78
2022/01/25 08:58:57;;;;;;;75.60;35.15;;;3.50;99.90;;;;;;5030243;28;20049;-79
2022/01/25 09:01:22;;;;;;;82.88;39.33;;;3.50;99.90;;;;;;5030407;28;20037;-81
2022/01/25 09:03:49;;;;;;;70.75;34.90;;;3.50;99.90;;;;;;5030044;28;20377;-83
2022/01/25 09:06:17;;;;;;;76.18;37.25;;;3.50;99.90;;;;;;5030203;28;20037;-84
2022/01/25 09:08:42;;;;;;;76.40;35.97;;;3.50;99.90;;;;;;5029814;28;20088;-82
2022/01/25 09:11:08;;;;;;;75.28;34.00;;;3.70;99.90;;;;;;5029605;28;20076;-85
2022/01/25 09:13:35;;;;;;;74.63;35.25;;;3.50;99.90;;;;;;5029840;28;20120;-81
2022/01/25 09:16:01;;;;;;;74.50;35.47;;;3.50;99.90;;;;;;5029796;28;20045;-78
2022/01/25 09:18:27;;;;;;;76.50;35.63;;;3.50;99.90;;;;;;5033700;28;20144;-79
2022/01/25 09:20:55;;;;;;;74.38;35.40;;;3.50;99.90;;;;;;5016264;28;20065;-78
2022/01/25 09:23:22;;;;;;;77.28;35.75;;;3.50;99.90;;;;;;5033703;28;20041;-79
2022/01/25 09:25:48;;;;;;;73.95;36.00;;;3.50;99.90;;;;;;5033767;28;20049;-80
2022/01/25 09:28:15;;;;;;;75.18;35.28;;;3.50;99.90;;;;;;5015828;28;20530;-82
2022/01/25 09:30:41;;;;;;;75.63;34.63;;;3.60;99.90;;;;;;5033572;28;20369;-79
2022/01/25 09:33:07;;;;;;;72.43;34.08;;;3.60;99.90;;;;;;5033496;28;20856;-78
2022/01/25 09:35:33;;;;;;;79.40;37.92;;;3.60;99.90;;;;;;5033501;28;20085;-79
2022/01/25 09:37:58;;;;;;;72.57;34.67;;;3.60;99.90;;;;;;5033315;28;20041;-83
2022/01/25 09:40:25;;;;;;;77.30;35.42;;;3.60;99.90;;;;;;5032604;28;20053;-80
2022/01/25 09:42:55;;;;;;;75.43;37.05;;;3.60;99.90;;;;;;5033382;28;20124;-79
2022/01/25 09:45:21;;;;;;;80.93;35.60;;;3.50;99.90;;;;;;5032968;28;20053;-78
2022/01/25 09:47:47;;;;;;;86.20;36.20;;;3.60;99.90;;;;;;5033286;28;20049;-80
2022/01/25 09:50:13;;;;;;;81.43;36.25;;;3.50;99.90;;;;;;5033320;28;20053;-77
2022/01/25 09:52:42;;;;;;;82.13;38.63;;;3.50;99.90;;;;;;5033412;28;20037;-80
2022/01/25 09:55:16;;;;;;;73.90;35.22;;;3.60;99.90;;;;;;5032722;28;20053;-80
2022/01/25 09:57:42;;;;;;;85.53;35.83;;;3.60;99.90;;;;;;5015171;28;20049;-78
2022/01/25 10:00:11;;;;;;;81.25;36.72;;;3.60;99.90;;;;;;5033199;28;20096;-80
2022/01/25 10:03:05;;;;;;;79.38;35.55;;;3.60;99.90;;;;;;5033106;28;20048;-86
2022/01/25 10:05:35;;;;;;;79.25;36.58;;;3.60;99.90;;;;;;5033127;28;20049;-86
2022/01/25 10:08:11;;;;;;;74.68;34.33;;;3.60;99.90;;;;;;5033087;28;20042;-78
2022/01/25 10:10:42;;;;;;;74.45;35.75;;;3.50;99.90;;;;;;5014694;28;20100;-78
2022/01/25 10:13:10;;;;;;;72.78;35.30;;;3.60;99.90;;;;;;5032899;28;20484;-82
2022/01/25 10:15:36;;;;;;;75.50;35.80;;;3.60;99.90;;;;;;5015545;28;20399;-81
2022/01/25 10:18:04;;;;;;;79.38;34.25;;;3.50;99.90;;;;;;5033082;28;20048;-78
2022/01/25 10:20:36;;;;;;;80.97;36.53;;;3.60;99.90;;;;;;5032856;28;20088;-78
2022/01/25 10:23:31;;;;;;;78.05;37.25;;;3.60;99.90;;;;;;5032971;28;20478;-81
2022/01/25 10:26:00;;;;;;;75.50;35.78;;;3.60;99.90;;;;;;5031932;28;20057;-79
2022/01/25 10:28:30;;;;;;;77.57;35.40;;;3.60;99.90;;;;;;5032040;28;20053;-81
2022/01/25 10:30:59;;;;;;;79.15;34.95;;;3.60;99.90;;;;;;5015137;28;20479;-84
2022/01/25 10:33:35;;;;;;;80.88;34.92;;;3.60;99.90;;;;;;5032771;28;20092;-85
2022/01/25 10:36:16;;;;;;;80.15;36.08;;;3.60;99.90;;;;;;5032540;28;20038;-84
2022/01/25 10:38:44;;;;;;;80.00;35.97;;;3.90;99.90;;;;;;5032635;28;20049;-84
2022/01/25 10:41:13;;;;;;;82.15;37.50;;;3.60;99.90;;;;;;5031991;28;20534;-79
2022/01/25 10:43:40;;;;;;;70.32;33.42;;;3.60;99.90;;;;;;5032629;28;20080;-78
2022/01/25 10:46:13;;;;;;;78.05;34.38;;;3.60;99.90;;;;;;5032451;28;20062;-81
2022/01/25 10:48:42;;;;;;;78.88;35.83;;;3.60;99.90;;;;;;5032191;28;20145;-79
2022/01/25 10:51:14;;;;;;;76.20;35.97;;;4.20;99.90;;;;;;5032542;28;20681;-81
2022/01/25 10:53:40;;;;;;;85.80;38.03;;;3.70;99.90;;;;;;5032415;28;20476;-83
2022/01/25 10:56:07;;;;;;;84.90;35.80;;;3.70;99.90;;;;;;5032257;28;20080;-79
2022/01/25 10:58:42;;;;;;;78.80;35.97;;;3.70;99.90;;;;;;5032207;28;20072;-82
2022/01/25 11:01:10;;;;;;;76.22;36.15;;;3.70;99.90;;;;;;5032126;28;20068;-81
2022/01/25 11:03:42;;;;;;;81.60;34.90;;;3.70;99.90;;;;;;5031856;28;20500;-84
2022/01/25 11:06:12;;;;;;;80.10;35.72;;;4.70;99.90;;;;;;5032407;28;20049;-80
2022/01/25 11:08:39;;;;;;;83.43;36.60;;;3.70;99.90;;;;;;5031908;28;20073;-86
2022/01/25 11:11:09;;;;;;;78.80;36.90;;;3.80;99.90;;;;;;5031739;28;20069;-84
2022/01/25 11:13:37;;;;;;;81.75;36.67;;;3.80;99.90;;;;;;5031738;28;20045;-82
2022/01/25 11:16:07;;;;;;;81.35;35.67;;;3.80;99.90;;;;;;5031434;28;20107;-78
2022/01/25 11:18:33;;;;;;;83.75;37.35;;;3.80;99.90;;;;;;4997692;28;20080;-76
2022/01/25 11:21:03;;;;;;;83.35;36.75;;;3.80;99.90;;;;;;5031831;28;20465;-80
2022/01/25 11:23:35;;;;;;;76.78;35.50;;;3.80;99.90;;;;;;5031341;28;20054;-80
2022/01/25 11:26:03;;;;;;;84.93;36.45;;;3.80;99.90;;;;;;5031084;28;20044;-77
2022/01/25 11:28:31;;;;;;;83.82;37.42;;;3.80;99.90;;;;;;5031414;28;20459;-83
2022/01/25 11:31:02;;;;;;;84.55;37.00;;;3.80;99.90;;;;;;5031087;28;20053;-85
2022/01/25 11:33:30;;;;;;;93.53;38.95;;;3.80;99.90;;;;;;5031439;28;20518;-79
2022/01/25 11:35:56;;;;;;;80.85;36.75;;;3.80;99.90;;;;;;5031451;28;20278;-78
2022/01/25 11:38:40;;;;;;;79.55;35.88;;;3.80;99.90;;;;;;5031428;28;20073;-79
2022/01/25 11:41:15;;;;;;;83.53;37.50;;;3.80;99.90;;;;;;5030016;28;20049;-81
2022/01/25 11:43:43;;;;;;;78.57;36.95;;;3.80;99.90;;;;;;5031597;28;20045;-79
2022/01/25 11:46:09;;;;;;;88.07;38.22;;;3.90;99.90;;;;;;5030883;28;20096;-87
2022/01/25 11:48:43;;;;;;;81.68;35.83;;;3.80;99.90;;;;;;5013049;28;20562;-84
2022/01/25 11:51:16;;;;;;;78.80;34.80;;;3.90;99.90;;;;;;5031148;28;20052;-79
2022/01/25 11:53:44;;;;;;;81.63;36.03;;;3.90;99.90;;;;;;5030960;28;20675;-85
2022/01/25 11:56:11;;;;;;;72.03;34.92;;;3.90;99.90;;;;;;5030450;28;20492;-84
2022/01/25 11:58:37;;;;;;;79.35;35.28;;;3.90;99.90;;;;;;5031100;28;20128;-79
2022/01/25 12:01:16;;;;;;;82.68;36.85;;;3.90;99.90;;;;;;5031251;28;20128;-85
2022/01/25 12:03:44;;;;;;;84.97;35.00;;;3.90;99.90;;;;;;5031191;28;20403;-86
2022/01/25 12:06:34;;;;;;;78.43;35.22;;;3.90;99.90;;;;;;5031299;28;20052;-83
2022/01/25 12:09:20;;;;;;;86.70;38.40;;;3.90;99.90;;;;;;5030631;28;20045;-84
2022/01/25 12:12:00;;;;;;;85.95;38.97;;;3.90;99.90;;;;;;5030955;28;20081;-79
2022/01/25 12:14:43;;;;;;;78.28;35.17;;;3.90;99.90;;;;;;5030850;28;20056;-86
2022/01/25 12:17:10;;;;;;;79.97;36.30;;;3.90;99.90;;;;;;5030742;28;20048;-84
2022/01/25 12:19:41;;;;;;;77.38;36.42;;;3.90;99.90;;;;;;5030932;28;20053;-86
2022/01/25 12:22:15;;;;;;;82.82;37.58;;;4.30;99.90;;;;;;5030599;28;20128;-93
2022/01/25 12:24:46;;;;;;;85.32;36.25;;;3.90;99.90;;;;;;5012585;28;20048;-84
2022/01/25 12:27:24;;;;;;;89.05;38.45;;;4.00;99.90;;;;;;5030109;28;20124;-83
2022/01/25 12:30:12;;;;;;;88.53;38.90;;;3.90;99.90;;;;;;5012600;28;20128;-80
2022/01/25 12:32:50;;;;;;;77.80;36.35;;;3.90;99.90;;;;;;5030516;28;20049;-80
2022/01/25 12:35:17;;;;;;;90.78;37.63;;;4.00;99.90;;;;;;5030411;28;20042;-87
2022/01/25 12:37:43;;;;;;;81.10;37.80;;;4.00;99.90;;;;;;5030202;28;20403;-83
2022/01/25 12:40:31;;;;;;;88.68;37.00;;;3.90;99.90;;;;;;5029653;28;20049;-86
2022/01/25 12:42:59;;;;;;;81.38;35.80;;;4.00;99.90;;;;;;5030193;28;20045;-83
2022/01/25 12:45:28;;;;;;;88.70;38.33;;;3.90;99.90;;;;;;5030153;28;20057;-84
2022/01/25 12:48:06;;;;;;;90.10;37.55;;;4.00;99.90;;;;;;5011761;28;20053;-81
2022/01/25 12:50:36;;;;;;;85.22;37.70;;;4.00;99.90;;;;;;5030332;28;20050;-84
2022/01/25 12:53:04;;;;;;;90.22;37.10;;;4.50;99.90;;;;;;5017326;28;20057;-76
2022/01/25 12:55:34;;;;;;;82.57;37.42;;;5.10;99.90;;;;;;5029245;28;20049;-79
2022/01/25 12:58:01;;;;;;;84.07;38.10;;;3.90;99.90;;;;;;5030173;28;20041;-86
2022/01/25 13:00:35;;;;;;;85.68;37.25;;;4.00;99.90;;;;;;5030132;28;20464;-87
2022/01/25 13:03:22;;;;;;;81.45;36.33;;;4.00;99.90;;;;;;5030099;28;20056;-86
2022/01/25 13:05:51;;;;;;;85.93;38.03;;;4.00;99.90;;;;;;5029917;28;20081;-84
2022/01/25 13:08:25;;;;;;;85.88;36.67;;;4.00;99.90;;;;;;5030091;28;20069;-81
2022/01/25 13:10:56;;;;;;;79.93;34.92;;;4.00;99.90;;;;;;5030468;28;20049;-83
2022/01/25 13:13:29;;;;;;;73.30;33.75;;;4.00;99.90;;;;;;5030130;28;20039;-81
2022/01/25 13:15:58;;;;;;;84.03;37.10;;;3.90;99.90;;;;;;5030063;28;20551;-84
2022/01/25 13:18:28;;;;;;;87.25;34.67;;;3.90;99.90;;;;;;5030113;28;20042;-80
2022/01/25 13:21:06;;;;;;;91.13;36.75;;;3.90;99.90;;;;;;5030088;28;20132;-84
2022/01/25 13:23:33;;;;;;;75.47;34.78;;;3.90;99.90;;;;;;5029880;28;20045;-86
2022/01/25 13:26:11;;;;;;;84.97;37.80;;;3.90;99.90;;;;;;5012492;28;20115;-79
2022/01/25 13:28:54;;;;;;;83.35;37.45;;;3.90;99.90;;;;;;5029928;28;20115;-81
2022/01/25 13:31:22;;;;;;;88.57;36.10;;;4.00;99.90;;;;;;5029781;28;20132;-80
2022/01/25 13:33:48;;;;;;;83.47;37.35;;;3.90;99.90;;;;;;5029836;28;20053;-80
2022/01/25 13:36:16;;;;;;;83.07;37.83;;;3.90;99.90;;;;;;5029766;28;20038;-82
2022/01/25 13:38:43;;;;;;;84.10;36.42;;;3.90;99.90;;;;;;5029725;28;20077;-79
2022/01/25 13:46:11;;;;;;;78.85;36.72;;;3.90;99.90;;;;;;5029494;28;20053;-80
2022/01/25 13:48:37;;;;;;;80.60;35.65;;;3.90;99.90;;;;;;5029488;28;20045;-85
2022/01/25 13:51:07;;;;;;;76.15;35.45;;;3.90;99.90;;;;;;5029491;28;20085;-81
2022/01/25 13:53:35;;;;;;;77.75;36.33;;;3.90;99.90;;;;;;5029338;28;20052;-78
2022/01/25 13:56:03;;;;;;;84.32;34.97;;;3.90;99.90;;;;;;5029636;28;20079;-87
2022/01/25 13:58:37;;;;;;;88.95;37.70;;;3.90;99.90;;;;;;5029231;28;20056;-79
2022/01/25 14:01:06;;;;;;;91.60;40.28;;;3.90;99.90;;;;;;5029435;28;20425;-83
2022/01/25 14:03:36;;;;;;;84.32;36.90;;;3.90;99.90;;;;;;5030035;28;20120;-82
2022/01/25 14:06:02;;;;;;;92.53;38.53;;;4.30;99.90;;;;;;5033034;28;20072;-83
2022/01/25 14:08:38;;;;;;;87.15;36.97;;;4.70;99.90;;;;;;5032964;28;20041;-84
2022/01/25 14:11:27;;;;;;;87.63;39.08;;;3.90;99.90;;;;;;5033091;28;20038;-79
2022/01/25 14:24:35;;;;;;;96.03;38.38;;;3.80;99.90;;;;;;5015088;28;20057;-79
2022/01/25 14:27:24;;;;;;;93.10;39.33;;;3.80;99.90;;;;;;5032498;28;20484;-87
2022/01/25 14:29:54;;;;;;;95.88;39.20;;;3.80;99.90;;;;;;5032663;28;20459;-80
2022/01/25 14:32:33;;;;;;;94.55;39.22;;;3.80;99.90;;;;;;5032630;28;20045;-86
2022/01/25 14:35:09;;;;;;;93.68;38.97;;;3.80;99.90;;;;;;5032505;28;20107;-82
2022/01/25 14:37:44;;;;;;;86.18;38.25;;;3.80;99.90;;;;;;5032307;28;20575;-80